Time;durP1;ratioP1;P1;durP2;ratioP2;P2;SDS_P1;SDS_P2;PMS_P1;PMS_P2;Temp;Humidity;BMP_temperature;BMP_pressure;BME280_temperature;BME280_humidity;BME280_pressure;Samples;Min_cycle;Max_cycle;Signal;HPM_P1;HPM_P2
2023/05/16 00:02:04;;;;;;;12.65;7.78;;;;;;;;;;5072325;28;20012;-63
2023/05/16 00:04:31;;;;;;;12.80;7.55;;;;;;;;;;5063703;28;20537;-62
2023/05/16 00:06:56;;;;;;;14.20;7.32;;;;;;;;;;5062255;28;20036;-62
2023/05/16 00:09:21;;;;;;;12.00;7.57;;;;;;;;;;5070845;28;20092;-63
2023/05/16 00:11:47;;;;;;;12.25;7.93;;;;;;;;;;5071112;28;20112;-63
2023/05/16 00:14:13;;;;;;;13.52;7.75;;;;;;;;;;5062004;28;20033;-63
2023/05/16 00:16:40;;;;;;;15.82;7.90;;;;;;;;;;5070853;28;20125;-61
2023/05/16 00:19:06;;;;;;;13.35;7.88;;;;;;;;;;5071205;28;20025;-59
2023/05/16 00:21:31;;;;;;;11.98;8.18;;;;;;;;;;5071260;28;20463;-63
2023/05/16 00:23:56;;;;;;;13.25;8.05;;;;;;;;;;5070333;28;20024;-64
2023/05/16 00:26:22;;;;;;;14.73;8.25;;;;;;;;;;5071074;28;20017;-64
2023/05/16 00:28:47;;;;;;;14.48;7.47;;;;;;;;;;5060899;28;20020;-61
2023/05/16 00:31:12;;;;;;;11.73;8.13;;;;;;;;;;5071073;28;20020;-63
2023/05/16 00:33:37;;;;;;;12.75;8.02;;;;;;;;;;5070744;28;20457;-62
2023/05/16 00:36:03;;;;;;;11.90;7.78;;;;;;;;;;5072123;28;20500;-62
2023/05/16 00:38:28;;;;;;;14.82;8.57;;;;;;;;;;5071944;28;20024;-63
2023/05/16 00:40:53;;;;;;;15.70;7.80;;;;;;;;;;5071110;28;20422;-64
2023/05/16 00:43:19;;;;;;;14.43;8.60;;;;;;;;;;5069083;28;20109;-62
2023/05/16 00:45:44;;;;;;;14.52;7.72;;;;;;;;;;5071028;28;20027;-61
2023/05/16 00:48:11;;;;;;;16.40;9.52;;;;;;;;;;5072332;28;20021;-62
2023/05/16 00:50:36;;;;;;;12.93;8.15;;;;;;;;;;5068680;28;20505;-63
2023/05/16 00:53:02;;;;;;;13.60;8.15;;;;;;;;;;5069599;28;20025;-64
2023/05/16 00:55:27;;;;;;;15.10;8.93;;;;;;;;;;5070581;28;20501;-64
2023/05/16 00:57:52;;;;;;;17.25;8.32;;;;;;;;;;5071067;28;20104;-63
2023/05/16 01:00:18;;;;;;;18.83;8.95;;;;;;;;;;5063098;22;20495;-64
2023/05/16 01:02:44;;;;;;;13.10;7.95;;;;;;;;;;5036173;28;20024;-66
2023/05/16 01:05:10;;;;;;;13.38;8.15;;;;;;;;;;5037945;28;20028;-66
2023/05/16 01:07:35;;;;;;;17.08;8.30;;;;;;;;;;5035252;28;20049;-65
2023/05/16 01:10:02;;;;;;;14.85;8.82;;;;;;;;;;5033882;28;20539;-65
2023/05/16 01:12:31;;;;;;;14.63;8.60;;;;;;;;;;5029791;28;20010;-65
2023/05/16 01:15:08;;;;;;;17.80;8.35;;;;;;;;;;5029051;28;20033;-67
2023/05/16 01:17:36;;;;;;;13.50;8.38;;;;;;;;;;5029277;28;20022;-65
2023/05/16 01:20:13;;;;;;;17.40;8.00;;;;;;;;;;5029140;28;20025;-66
2023/05/16 01:22:41;;;;;;;14.50;8.27;;;;;;;;;;5029149;28;20029;-65
2023/05/16 01:25:25;;;;;;;13.87;8.07;;;;;;;;;;5028481;28;20038;-66
2023/05/16 01:27:51;;;;;;;14.88;7.93;;;;;;;;;;5029446;28;20017;-64
2023/05/16 01:30:17;;;;;;;17.27;7.85;;;;;;;;;;5030267;28;20021;-65
2023/05/16 01:32:43;;;;;;;15.55;8.40;;;;;;;;;;5029734;28;20516;-66
2023/05/16 01:35:09;;;;;;;14.07;8.65;;;;;;;;;;5029025;28;20025;-66
2023/05/16 01:37:37;;;;;;;15.35;7.97;;;;;;;;;;5029044;28;20064;-64
2023/05/16 01:40:06;;;;;;;17.10;8.20;;;;;;;;;;5029110;28;20017;-66
2023/05/16 01:42:33;;;;;;;16.02;8.27;;;;;;;;;;5028764;28;20029;-66
2023/05/16 01:45:01;;;;;;;13.05;8.27;;;;;;;;;;5028770;28;20024;-67
2023/05/16 01:47:27;;;;;;;12.95;8.20;;;;;;;;;;5029725;28;20499;-65
2023/05/16 01:50:11;;;;;;;13.60;7.80;;;;;;;;;;5029292;28;20018;-66
2023/05/16 01:52:42;;;;;;;18.17;7.93;;;;;;;;;;5016742;28;20635;-66
2023/05/16 01:55:10;;;;;;;14.40;7.82;;;;;;;;;;5028361;28;20029;-66
2023/05/16 01:57:36;;;;;;;12.85;7.70;;;;;;;;;;5029180;28;20085;-65
2023/05/16 02:00:01;;;;;;;15.02;7.70;;;;;;;;;;5029263;28;20546;-67
2023/05/16 02:02:26;;;;;;;13.55;7.57;;;;;;;;;;5026940;28;20025;-67
2023/05/16 02:04:52;;;;;;;11.57;7.47;;;;;;;;;;5016144;28;20022;-67
2023/05/16 02:07:17;;;;;;;13.02;7.78;;;;;;;;;;5028772;28;20026;-67
2023/05/16 02:09:42;;;;;;;14.68;8.25;;;;;;;;;;5028917;28;20059;-66
2023/05/16 02:12:07;;;;;;;20.70;9.10;;;;;;;;;;5029323;28;20539;-65
2023/05/16 02:14:33;;;;;;;16.77;8.32;;;;;;;;;;5027986;28;20475;-66
2023/05/16 02:16:58;;;;;;;18.52;10.02;;;;;;;;;;5029781;28;20025;-66
2023/05/16 02:19:23;;;;;;;19.55;9.15;;;;;;;;;;5028782;28;20867;-65
2023/05/16 02:21:49;;;;;;;15.60;10.05;;;;;;;;;;5028780;28;20021;-66
2023/05/16 02:24:14;;;;;;;17.73;9.95;;;;;;;;;;5027693;28;20036;-63
2023/05/16 02:26:39;;;;;;;20.10;12.13;;;;;;;;;;5029426;28;20022;-65
2023/05/16 02:29:05;;;;;;;22.70;11.57;;;;;;;;;;5030765;28;20052;-65
2023/05/16 02:31:31;;;;;;;22.90;11.95;;;;;;;;;;5033326;28;20025;-67
2023/05/16 02:33:57;;;;;;;22.70;14.38;;;;;;;;;;5031874;28;20032;-67
2023/05/16 02:36:23;;;;;;;23.70;13.40;;;;;;;;;;5032718;28;20029;-66
2023/05/16 02:38:48;;;;;;;20.55;13.32;;;;;;;;;;5030977;28;20029;-66
2023/05/16 02:41:13;;;;;;;22.77;14.48;;;;;;;;;;5032627;28;20064;-67
2023/05/16 02:43:38;;;;;;;28.80;15.65;;;;;;;;;;5030848;28;20048;-66
2023/05/16 02:46:04;;;;;;;28.00;16.23;;;;;;;;;;5032695;28;20036;-66
2023/05/16 02:48:29;;;;;;;25.25;15.18;;;;;;;;;;5032787;28;20013;-66
2023/05/16 02:50:54;;;;;;;29.08;18.15;;;;;;;;;;5032153;28;20029;-65
2023/05/16 02:53:20;;;;;;;29.13;15.70;;;;;;;;;;5031068;28;20029;-66
2023/05/16 02:55:45;;;;;;;34.08;16.45;;;;;;;;;;5030542;28;20022;-65
2023/05/16 02:58:10;;;;;;;34.53;19.63;;;;;;;;;;5030861;28;20030;-66
2023/05/16 03:00:36;;;;;;;34.03;19.10;;;;;;;;;;5032564;28;20033;-65
2023/05/16 03:03:04;;;;;;;36.58;19.77;;;;;;;;;;5025324;28;20029;-67
2023/05/16 03:05:29;;;;;;;34.65;20.63;;;;;;;;;;5028087;28;20079;-67
2023/05/16 03:07:54;;;;;;;37.47;21.90;;;;;;;;;;5031327;28;20044;-67
2023/05/16 03:10:20;;;;;;;39.03;21.70;;;;;;;;;;5031860;28;20021;-66
2023/05/16 03:12:45;;;;;;;37.40;21.77;;;;;;;;;;5031480;28;20010;-67
2023/05/16 03:15:10;;;;;;;33.83;20.60;;;;;;;;;;5030216;28;20025;-67
2023/05/16 03:17:35;;;;;;;33.30;20.38;;;;;;;;;;5032051;28;20025;-63
2023/05/16 03:20:04;;;;;;;37.88;20.67;;;;;;;;;;5031432;28;20033;-66
2023/05/16 03:22:29;;;;;;;31.08;18.63;;;;;;;;;;5031799;28;20486;-66
2023/05/16 03:24:55;;;;;;;30.80;18.40;;;;;;;;;;5031245;28;20541;-66
2023/05/16 03:27:21;;;;;;;30.42;17.98;;;;;;;;;;5032299;28;20386;-67
2023/05/16 03:29:46;;;;;;;31.38;19.10;;;;;;;;;;5031939;28;20025;-66
2023/05/16 03:32:12;;;;;;;34.13;18.95;;;;;;;;;;5032080;28;20017;-66
2023/05/16 03:34:37;;;;;;;31.38;19.08;;;;;;;;;;5030395;28;20022;-67
2023/05/16 03:37:03;;;;;;;30.92;17.98;;;;;;;;;;5031762;28;20057;-67
2023/05/16 03:39:28;;;;;;;30.08;19.13;;;;;;;;;;5030237;28;20021;-65
2023/05/16 03:41:56;;;;;;;31.50;19.70;;;;;;;;;;5031713;28;20018;-67
2023/05/16 03:44:21;;;;;;;34.03;19.10;;;;;;;;;;5026489;28;20029;-65
2023/05/16 03:46:46;;;;;;;37.88;19.48;;;;;;;;;;5031880;28;20545;-66
2023/05/16 03:49:11;;;;;;;34.17;17.48;;;;;;;;;;5031435;28;20021;-66
2023/05/16 03:51:37;;;;;;;28.48;17.98;;;;;;;;;;5028753;28;20021;-66
2023/05/16 03:54:02;;;;;;;30.13;19.45;;;;;;;;;;5029893;28;20032;-66
2023/05/16 03:56:27;;;;;;;31.15;18.67;;;;;;;;;;5031456;28;20498;-66
2023/05/16 03:58:52;;;;;;;28.95;18.58;;;;;;;;;;5030828;28;20096;-67
2023/05/16 04:01:17;;;;;;;28.67;18.55;;;;;;;;;;5031434;28;20033;-66
2023/05/16 04:03:43;;;;;;;32.47;18.92;;;;;;;;;;5020082;28;20018;-65
2023/05/16 04:06:08;;;;;;;33.85;18.45;;;;;;;;;;5029210;28;20079;-65
2023/05/16 04:08:33;;;;;;;28.92;17.00;;;;;;;;;;5031051;28;20037;-64
2023/05/16 04:10:59;;;;;;;31.08;16.75;;;;;;;;;;5029513;28;20399;-66
2023/05/16 04:13:24;;;;;;;28.40;16.67;;;;;;;;;;5030442;28;20060;-65
2023/05/16 04:15:50;;;;;;;30.08;16.65;;;;;;;;;;5030876;28;20021;-68
2023/05/16 04:18:15;;;;;;;27.58;16.48;;;;;;;;;;5031137;28;20033;-66
2023/05/16 04:20:43;;;;;;;26.98;17.65;;;;;;;;;;5030312;28;20021;-66
2023/05/16 04:23:10;;;;;;;30.65;16.52;;;;;;;;;;5029043;28;20052;-66
2023/05/16 04:25:36;;;;;;;28.88;18.05;;;;;;;;;;5033163;28;20030;-66
2023/05/16 04:28:01;;;;;;;27.05;16.88;;;;;;;;;;5030618;28;20024;-66
2023/05/16 04:30:26;;;;;;;26.98;17.02;;;;;;;;;;5030767;28;20097;-66
2023/05/16 04:32:52;;;;;;;37.72;17.95;;;;;;;;;;5031254;28;20140;-66
2023/05/16 04:35:17;;;;;;;32.97;18.52;;;;;;;;;;5032870;28;20518;-66
2023/05/16 04:37:42;;;;;;;30.42;17.35;;;;;;;;;;5035264;28;20017;-65
2023/05/16 04:40:08;;;;;;;28.05;17.38;;;;;;;;;;5030396;28;20039;-65
2023/05/16 04:42:34;;;;;;;29.10;17.88;;;;;;;;;;5028846;28;20032;-66
2023/05/16 04:44:59;;;;;;;29.35;17.90;;;;;;;;;;5030810;28;20140;-66
2023/05/16 04:47:24;;;;;;;31.90;18.98;;;;;;;;;;5041288;28;20060;-65
2023/05/16 04:49:50;;;;;;;30.15;16.70;;;;;;;;;;5028453;28;20112;-67
2023/05/16 04:52:15;;;;;;;28.88;16.92;;;;;;;;;;5028325;28;20026;-66
2023/05/16 04:54:40;;;;;;;29.63;15.88;;;;;;;;;;5027889;28;20057;-66
2023/05/16 04:57:05;;;;;;;33.55;16.73;;;;;;;;;;5031469;28;20029;-65
2023/05/16 04:59:31;;;;;;;26.80;14.68;;;;;;;;;;5024874;28;20483;-66
2023/05/16 05:01:56;;;;;;;25.95;14.55;;;;;;;;;;5029956;28;20075;-67
2023/05/16 05:04:21;;;;;;;25.15;12.88;;;;;;;;;;5023820;28;20017;-65
2023/05/16 05:06:47;;;;;;;17.73;10.98;;;;;;;;;;5028714;28;20014;-65
2023/05/16 05:09:12;;;;;;;17.85;11.15;;;;;;;;;;5033070;28;20009;-65
2023/05/16 05:11:38;;;;;;;20.15;10.80;;;;;;;;;;5045834;28;20367;-66
2023/05/16 05:14:03;;;;;;;19.70;11.40;;;;;;;;;;5032562;28;20033;-67
2023/05/16 05:16:28;;;;;;;17.13;11.07;;;;;;;;;;5029625;28;20055;-65
2023/05/16 05:18:53;;;;;;;20.50;11.52;;;;;;;;;;5033933;28;20025;-66
2023/05/16 05:21:19;;;;;;;29.40;11.82;;;;;;;;;;5033558;28;20028;-67
2023/05/16 05:23:44;;;;;;;21.92;10.55;;;;;;;;;;5033186;28;20029;-65
2023/05/16 05:26:10;;;;;;;21.77;10.27;;;;;;;;;;5036312;28;20051;-66
2023/05/16 05:28:36;;;;;;;18.00;9.18;;;;;;;;;;5032049;28;20515;-66
2023/05/16 05:31:03;;;;;;;19.60;8.85;;;;;;;;;;5029160;28;20407;-64
2023/05/16 05:33:28;;;;;;;14.60;7.97;;;;;;;;;;5029226;28;20075;-65
2023/05/16 05:35:54;;;;;;;12.68;7.68;;;;;;;;;;5020624;28;20104;-66
2023/05/16 05:38:19;;;;;;;12.80;6.35;;;;;;;;;;5029332;28;20025;-66
2023/05/16 05:40:45;;;;;;;13.20;6.55;;;;;;;;;;5030159;28;20029;-65
2023/05/16 05:43:10;;;;;;;10.73;6.40;;;;;;;;;;5032858;28;20026;-64
2023/05/16 05:45:36;;;;;;;8.40;5.55;;;;;;;;;;5034113;28;20022;-64
2023/05/16 05:48:02;;;;;;;11.65;6.03;;;;;;;;;;5030131;28;20022;-66
2023/05/16 05:50:27;;;;;;;10.48;5.82;;;;;;;;;;5028849;28;20083;-65
2023/05/16 05:52:52;;;;;;;9.23;5.22;;;;;;;;;;5028341;28;20060;-64
2023/05/16 05:55:17;;;;;;;13.30;5.47;;;;;;;;;;5028423;28;20083;-67
2023/05/16 05:57:43;;;;;;;10.90;4.15;;;;;;;;;;5028336;28;20022;-66
2023/05/16 06:00:09;;;;;;;9.40;4.38;;;;;;;;;;5027380;28;20033;-65
2023/05/16 06:02:34;;;;;;;9.18;3.80;;;;;;;;;;5028524;28;20421;-65
2023/05/16 06:05:00;;;;;;;11.50;4.07;;;;;;;;;;5032026;28;20100;-67
2023/05/16 06:07:25;;;;;;;6.82;4.10;;;;;;;;;;5031845;28;20030;-64
2023/05/16 06:09:51;;;;;;;9.55;4.13;;;;;;;;;;5033240;28;20017;-66
2023/05/16 06:12:16;;;;;;;9.05;4.35;;;;;;;;;;5032881;28;20014;-65
2023/05/16 06:14:42;;;;;;;13.80;4.32;;;;;;;;;;5032962;28;20045;-66
2023/05/16 06:17:07;;;;;;;9.75;4.10;;;;;;;;;;5031523;28;20402;-66
2023/05/16 06:19:32;;;;;;;10.32;4.45;;;;;;;;;;5032903;28;20063;-66
2023/05/16 06:21:57;;;;;;;11.70;4.05;;;;;;;;;;5032447;28;20453;-65
2023/05/16 06:24:23;;;;;;;9.43;3.83;;;;;;;;;;5030814;28;20064;-65
2023/05/16 06:26:49;;;;;;;9.77;4.20;;;;;;;;;;5037616;28;20013;-65
2023/05/16 06:29:14;;;;;;;10.30;4.13;;;;;;;;;;5034814;28;20021;-65
2023/05/16 06:31:40;;;;;;;8.55;3.92;;;;;;;;;;5022306;28;20022;-65
2023/05/16 06:34:05;;;;;;;7.72;4.05;;;;;;;;;;5031866;28;20025;-65
2023/05/16 06:36:30;;;;;;;10.18;3.58;;;;;;;;;;5033423;28;20028;-65
2023/05/16 06:38:56;;;;;;;7.60;4.32;;;;;;;;;;5032822;28;20506;-64
2023/05/16 06:41:21;;;;;;;11.18;4.75;;;;;;;;;;5030259;28;20047;-66
2023/05/16 06:43:46;;;;;;;6.80;3.92;;;;;;;;;;5031131;28;20083;-65
2023/05/16 06:46:12;;;;;;;9.48;4.68;;;;;;;;;;5031146;28;20133;-66
2023/05/16 06:48:37;;;;;;;8.45;4.80;;;;;;;;;;5032604;28;20013;-65
2023/05/16 06:51:03;;;;;;;10.93;4.10;;;;;;;;;;5030590;28;20017;-66
2023/05/16 06:53:28;;;;;;;8.23;4.55;;;;;;;;;;5023608;28;20080;-65
2023/05/16 06:55:53;;;;;;;8.32;4.53;;;;;;;;;;5030304;28;20104;-65
2023/05/16 06:58:18;;;;;;;11.80;4.53;;;;;;;;;;5031570;28;20396;-65
2023/05/16 07:00:44;;;;;;;11.82;4.75;;;;;;;;;;5045150;22;20109;-65
2023/05/16 07:03:09;;;;;;;11.75;4.70;;;;;;;;;;5032547;28;20051;-65
2023/05/16 07:05:34;;;;;;;7.38;3.97;;;;;;;;;;5032126;28;20514;-64
2023/05/16 07:08:00;;;;;;;10.27;4.45;;;;;;;;;;5031818;28;20139;-65
2023/05/16 07:10:26;;;;;;;7.38;4.60;;;;;;;;;;5045505;28;20386;-66
2023/05/16 07:12:51;;;;;;;7.78;4.43;;;;;;;;;;5050669;28;20021;-66
2023/05/16 07:15:17;;;;;;;11.55;4.38;;;;;;;;;;5051478;28;20071;-63
2023/05/16 07:17:42;;;;;;;10.63;4.50;;;;;;;;;;5052082;28;20470;-63
2023/05/16 07:20:12;;;;;;;8.90;3.97;;;;;;;;;;5052310;28;20028;-62
2023/05/16 07:22:37;;;;;;;14.32;4.07;;;;;;;;;;5051209;28;20025;-63
2023/05/16 07:25:03;;;;;;;6.22;3.25;;;;;;;;;;5050783;28;20397;-65
2023/05/16 07:27:29;;;;;;;8.00;4.03;;;;;;;;;;5051899;28;20561;-64
2023/05/16 07:29:54;;;;;;;9.90;4.47;;;;;;;;;;5060727;28;20099;-62
2023/05/16 07:32:20;;;;;;;12.57;3.45;;;;;;;;;;5053008;28;20021;-65
2023/05/16 07:34:45;;;;;;;13.20;4.18;;;;;;;;;;5052859;28;20079;-65
2023/05/16 07:37:11;;;;;;;9.30;3.47;;;;;;;;;;5054545;28;20095;-64
2023/05/16 07:39:40;;;;;;;6.63;3.42;;;;;;;;;;5052084;28;20029;-65
2023/05/16 07:42:05;;;;;;;7.18;3.20;;;;;;;;;;5055915;28;20029;-64
2023/05/16 07:44:31;;;;;;;6.13;3.15;;;;;;;;;;5058505;28;20499;-64
2023/05/16 07:46:56;;;;;;;10.65;2.97;;;;;;;;;;5052195;28;20559;-64
2023/05/16 07:49:21;;;;;;;6.75;3.05;;;;;;;;;;5053734;28;20074;-62
2023/05/16 07:51:46;;;;;;;9.07;3.80;;;;;;;;;;5051095;28;20047;-65
2023/05/16 07:54:12;;;;;;;8.52;3.10;;;;;;;;;;5051269;28;20046;-65
2023/05/16 07:56:37;;;;;;;12.30;3.33;;;;;;;;;;5050377;28;20386;-65
2023/05/16 07:59:04;;;;;;;5.00;2.83;;;;;;;;;;5051282;28;20024;-62
2023/05/16 08:01:29;;;;;;;10.73;3.10;;;;;;;;;;5050650;28;20671;-64
2023/05/16 08:03:55;;;;;;;5.63;3.00;;;;;;;;;;5050683;28;20036;-63
2023/05/16 08:06:20;;;;;;;5.60;2.95;;;;;;;;;;5051098;28;20028;-70
2023/05/16 08:08:45;;;;;;;8.60;3.10;;;;;;;;;;5052417;28;20029;-65
2023/05/16 08:11:10;;;;;;;4.72;2.50;;;;;;;;;;5051416;28;20032;-61
2023/05/16 08:13:35;;;;;;;5.05;2.90;;;;;;;;;;5050777;28;20103;-63
2023/05/16 08:16:01;;;;;;;7.22;2.90;;;;;;;;;;5050841;28;20017;-63
2023/05/16 08:18:26;;;;;;;4.25;2.33;;;;;;;;;;5051348;28;20033;-64
2023/05/16 08:20:51;;;;;;;5.22;2.35;;;;;;;;;;5050884;28;20024;-63
2023/05/16 08:23:17;;;;;;;7.07;2.67;;;;;;;;;;5059059;28;20085;-64
2023/05/16 08:25:43;;;;;;;4.95;2.30;;;;;;;;;;5050233;28;20013;-62
2023/05/16 08:28:08;;;;;;;9.93;2.40;;;;;;;;;;5053429;28;20099;-65
2023/05/16 08:30:33;;;;;;;7.18;2.22;;;;;;;;;;5051547;28;20382;-62
2023/05/16 08:33:03;;;;;;;9.80;2.38;;;;;;;;;;5051691;28;20711;-65
2023/05/16 08:35:28;;;;;;;7.18;2.20;;;;;;;;;;5050591;28;20497;-65
2023/05/16 08:37:53;;;;;;;11.45;2.55;;;;;;;;;;5050834;28;20029;-65
2023/05/16 08:40:22;;;;;;;7.97;2.50;;;;;;;;;;5050427;28;20040;-65
2023/05/16 08:42:47;;;;;;;5.97;2.42;;;;;;;;;;5057991;28;20021;-65
2023/05/16 08:45:13;;;;;;;4.72;2.15;;;;;;;;;;5056570;28;20070;-64
2023/05/16 08:47:40;;;;;;;7.05;2.20;;;;;;;;;;5050447;28;20155;-64
2023/05/16 08:50:08;;;;;;;3.95;2.13;;;;;;;;;;5058002;28;20380;-63
2023/05/16 08:52:34;;;;;;;3.33;1.52;;;;;;;;;;5050857;28;20013;-63
2023/05/16 08:55:06;;;;;;;4.57;1.60;;;;;;;;;;5055311;28;20566;-64
2023/05/16 08:57:35;;;;;;;7.70;1.50;;;;;;;;;;5049564;28;20113;-62
2023/05/16 09:00:00;;;;;;;5.30;1.60;;;;;;;;;;5049702;28;20490;-64
2023/05/16 09:02:29;;;;;;;4.47;1.60;;;;;;;;;;5050747;28;20043;-64
2023/05/16 09:04:56;;;;;;;5.75;1.48;;;;;;;;;;5049032;28;20021;-62
2023/05/16 09:07:21;;;;;;;4.82;1.65;;;;;;;;;;5052380;28;20406;-65
2023/05/16 09:09:46;;;;;;;5.82;1.63;;;;;;;;;;5050283;28;20483;-64
2023/05/16 09:12:11;;;;;;;5.95;1.52;;;;;;;;;;5049864;28;20051;-63
2023/05/16 09:14:37;;;;;;;4.13;1.40;;;;;;;;;;5049155;28;20025;-63
2023/05/16 09:17:06;;;;;;;2.83;1.20;;;;;;;;;;5057718;28;20025;-66
2023/05/16 09:19:31;;;;;;;;;;;;;;;;;;5052591;28;20040;-63
2023/05/16 09:21:56;;;;;;;7.88;1.63;;;;;;;;;;5048319;28;19959;-65
2023/05/16 09:24:24;;;;;;;3.25;1.48;;;;;;;;;;5048759;28;20029;-63
2023/05/16 09:26:50;;;;;;;4.43;1.02;;;;;;;;;;5050242;28;20044;-67
2023/05/16 09:29:15;;;;;;;3.47;1.65;;;;;;;;;;5058061;28;20033;-62
2023/05/16 09:31:41;;;;;;;4.03;1.40;;;;;;;;;;5055368;28;20055;-65
2023/05/16 09:34:07;;;;;;;7.57;1.60;;;;;;;;;;5053094;28;20066;-63
2023/05/16 09:36:32;;;;;;;12.82;1.55;;;;;;;;;;5048877;28;20075;-64
2023/05/16 09:38:58;;;;;;;5.25;1.25;;;;;;;;;;5048252;28;20025;-65
2023/05/16 09:41:23;;;;;;;10.38;2.05;;;;;;;;;;5048862;28;20075;-61
2023/05/16 09:43:48;;;;;;;7.68;1.67;;;;;;;;;;5059695;28;20111;-65
2023/05/16 09:46:14;;;;;;;4.00;1.50;;;;;;;;;;5052574;28;20096;-62
2023/05/16 09:48:41;;;;;;;4.22;1.75;;;;;;;;;;5049765;28;20104;-64
2023/05/16 09:51:07;;;;;;;6.45;1.90;;;;;;;;;;5050316;28;20021;-63
2023/05/16 09:53:32;;;;;;;2.53;1.20;;;;;;;;;;5049128;28;20070;-64
2023/05/16 09:56:04;;;;;;;9.00;1.70;;;;;;;;;;5049123;28;20025;-64
2023/05/16 09:58:30;;;;;;;6.53;1.63;;;;;;;;;;5048269;28;20082;-64
2023/05/16 10:00:56;;;;;;;6.07;1.48;;;;;;;;;;5056178;28;20029;-66
2023/05/16 10:03:22;;;;;;;7.30;1.60;;;;;;;;;;5042623;28;20029;-61
2023/05/16 10:05:47;;;;;;;4.25;1.50;;;;;;;;;;5048889;28;20155;-65
2023/05/16 10:08:13;;;;;;;3.72;1.48;;;;;;;;;;5049241;28;20154;-65
2023/05/16 10:10:38;;;;;;;5.82;1.75;;;;;;;;;;5048544;28;20029;-62
2023/05/16 10:13:04;;;;;;;7.93;1.55;;;;;;;;;;5050271;28;20036;-62
2023/05/16 10:15:29;;;;;;;4.53;1.58;;;;;;;;;;5053537;28;20508;-65
2023/05/16 10:17:57;;;;;;;5.45;1.70;;;;;;;;;;5049498;28;20099;-65
2023/05/16 10:20:22;;;;;;;9.38;1.90;;;;;;;;;;5049302;28;20105;-64
2023/05/16 10:22:48;;;;;;;7.18;1.98;;;;;;;;;;5050698;28;20095;-64
2023/05/16 10:25:19;;;;;;;4.50;1.60;;;;;;;;;;5053045;28;20087;-64
2023/05/16 10:27:46;;;;;;;5.38;1.70;;;;;;;;;;5051556;28;20056;-63
2023/05/16 10:30:11;;;;;;;3.53;1.30;;;;;;;;;;5049715;28;20059;-62
2023/05/16 10:32:37;;;;;;;7.60;1.40;;;;;;;;;;5049596;28;20093;-65
2023/05/16 10:35:03;;;;;;;7.40;1.73;;;;;;;;;;5050281;28;20094;-63
2023/05/16 10:37:30;;;;;;;15.48;2.00;;;;;;;;;;5048794;28;20048;-63
2023/05/16 10:39:56;;;;;;;8.57;1.67;;;;;;;;;;5048824;28;20044;-65
2023/05/16 10:42:21;;;;;;;9.98;2.30;;;;;;;;;;5049975;28;20100;-63
2023/05/16 10:44:46;;;;;;;6.30;1.95;;;;;;;;;;5055978;28;20016;-66
2023/05/16 10:47:11;;;;;;;10.25;2.72;;;;;;;;;;5040791;28;20036;-65
2023/05/16 10:49:39;;;;;;;15.85;3.20;;;;;;;;;;5050025;28;20498;-64
2023/05/16 10:52:12;;;;;;;8.43;2.60;;;;;;;;;;5049163;28;20070;-65
2023/05/16 10:54:38;;;;;;;9.45;2.15;;;;;;;;;;5052410;28;20840;-65
2023/05/16 10:57:05;;;;;;;10.07;2.28;;;;;;;;;;5048983;28;20801;-64
2023/05/16 10:59:38;;;;;;;6.53;2.15;;;;;;;;;;5050319;28;20032;-65
2023/05/16 11:02:19;;;;;;;6.53;2.15;;;;;;;;;;5051929;28;20033;-63
2023/05/16 11:04:47;;;;;;;7.45;1.70;;;;;;;;;;5047945;28;20017;-65
2023/05/16 11:07:12;;;;;;;12.85;1.90;;;;;;;;;;5050545;28;20021;-66
2023/05/16 11:09:42;;;;;;;8.02;1.85;;;;;;;;;;5047069;28;20051;-64
2023/05/16 11:12:08;;;;;;;10.88;2.55;;;;;;;;;;5045932;28;20087;-65
2023/05/16 11:14:38;;;;;;;13.55;2.45;;;;;;;;;;5049129;28;20031;-65
2023/05/16 11:17:09;;;;;;;14.85;2.58;;;;;;;;;;5048926;28;20039;-66
2023/05/16 11:19:47;;;;;;;8.70;2.17;;;;;;;;;;5050222;28;20051;-65
2023/05/16 11:22:16;;;;;;;13.95;2.97;;;;;;;;;;5048057;28;20033;-65
2023/05/16 11:24:41;;;;;;;;;;;;;;;;;;5049041;28;20387;-63
2023/05/16 11:27:06;;;;;;;11.73;2.88;;;;;;;;;;5049734;28;20665;-65
2023/05/16 11:29:33;;;;;;;13.88;2.17;;;;;;;;;;5052189;28;20028;-64
2023/05/16 11:31:59;;;;;;;16.15;2.33;;;;;;;;;;5047113;28;20021;-65
2023/05/16 11:34:24;;;;;;;14.50;2.25;;;;;;;;;;5052490;28;20509;-68
2023/05/16 11:36:49;;;;;;;7.18;1.70;;;;;;;;;;5047069;28;20025;-67
2023/05/16 11:39:15;;;;;;;10.38;2.30;;;;;;;;;;5050397;28;20077;-64
2023/05/16 11:41:40;;;;;;;22.60;3.20;;;;;;;;;;5047241;28;20021;-63
2023/05/16 11:44:06;;;;;;;11.55;2.20;;;;;;;;;;5050217;28;20020;-67
2023/05/16 11:46:32;;;;;;;18.65;2.33;;;;;;;;;;5047171;28;20085;-65
2023/05/16 11:48:58;;;;;;;13.13;3.08;;;;;;;;;;5047575;28;20041;-65
2023/05/16 11:51:23;;;;;;;9.10;1.98;;;;;;;;;;5049923;28;20028;-65
2023/05/16 11:53:49;;;;;;;15.00;2.05;;;;;;;;;;5047250;28;20028;-64
2023/05/16 11:56:14;;;;;;;14.43;2.25;;;;;;;;;;5046321;28;20078;-65
2023/05/16 11:58:41;;;;;;;6.80;1.73;;;;;;;;;;5049984;28;20044;-65
2023/05/16 12:01:07;;;;;;;27.10;2.20;;;;;;;;;;5050289;28;20040;-63
2023/05/16 12:03:34;;;;;;;8.10;1.85;;;;;;;;;;5043950;28;20112;-66
2023/05/16 12:05:59;;;;;;;11.75;2.78;;;;;;;;;;5047057;28;20085;-66
2023/05/16 12:08:25;;;;;;;9.73;1.73;;;;;;;;;;5048256;28;20037;-65
2023/05/16 12:10:51;;;;;;;15.05;2.60;;;;;;;;;;5047718;28;20016;-62
2023/05/16 12:13:18;;;;;;;11.00;2.30;;;;;;;;;;5045622;28;20052;-65
2023/05/16 12:15:43;;;;;;;12.38;2.38;;;;;;;;;;5046825;28;20623;-64
2023/05/16 12:18:08;;;;;;;12.60;1.95;;;;;;;;;;5048752;28;20033;-62
2023/05/16 12:20:34;;;;;;;21.08;2.78;;;;;;;;;;5047857;28;20031;-65
2023/05/16 12:22:59;;;;;;;8.38;1.67;;;;;;;;;;5048351;28;20066;-64
2023/05/16 12:25:26;;;;;;;9.13;1.88;;;;;;;;;;5042135;28;20111;-64
2023/05/16 12:27:52;;;;;;;13.77;2.22;;;;;;;;;;5047883;28;20506;-64
2023/05/16 12:30:17;;;;;;;16.35;2.58;;;;;;;;;;5048938;28;20028;-64
2023/05/16 12:32:43;;;;;;;8.93;2.03;;;;;;;;;;5044172;28;20021;-64
2023/05/16 12:35:10;;;;;;;12.13;2.17;;;;;;;;;;5047872;28;20029;-63
2023/05/16 12:37:36;;;;;;;14.25;2.40;;;;;;;;;;5049867;28;20747;-65
2023/05/16 12:40:03;;;;;;;12.82;2.00;;;;;;;;;;5047841;28;20086;-65
2023/05/16 12:42:28;;;;;;;11.10;1.80;;;;;;;;;;5049797;28;20036;-62
2023/05/16 12:44:56;;;;;;;12.07;2.60;;;;;;;;;;5047207;28;20032;-64
2023/05/16 12:47:22;;;;;;;8.32;1.90;;;;;;;;;;5049397;28;20843;-64
2023/05/16 12:49:50;;;;;;;7.15;1.40;;;;;;;;;;5049823;28;20025;-62
2023/05/16 12:52:19;;;;;;;10.60;2.30;;;;;;;;;;5043108;28;20542;-64
2023/05/16 12:54:45;;;;;;;10.25;1.85;;;;;;;;;;5048393;28;20016;-63
2023/05/16 12:57:10;;;;;;;15.73;1.55;;;;;;;;;;5048559;28;20102;-65
2023/05/16 12:59:35;;;;;;;9.88;1.88;;;;;;;;;;5066263;22;20020;-69
2023/05/16 13:02:01;;;;;;;8.45;2.13;;;;;;;;;;5035383;28;20033;-64
2023/05/16 13:04:26;;;;;;;6.47;1.60;;;;;;;;;;5018502;28;20039;-68
2023/05/16 13:06:52;;;;;;;8.00;1.50;;;;;;;;;;5037655;28;20108;-69
2023/05/16 13:09:17;;;;;;;6.35;1.40;;;;;;;;;;5035306;28;20044;-69
2023/05/16 13:11:42;;;;;;;9.70;1.33;;;;;;;;;;5056090;28;20028;-70
2023/05/16 13:14:11;;;;;;;13.57;1.98;;;;;;;;;;5057285;28;20036;-67
2023/05/16 13:16:37;;;;;;;10.15;1.85;;;;;;;;;;5057224;28;20675;-67
2023/05/16 13:19:04;;;;;;;8.82;2.08;;;;;;;;;;5056254;28;20032;-67
2023/05/16 13:21:30;;;;;;;13.75;2.97;;;;;;;;;;5057155;28;20025;-65
2023/05/16 13:23:56;;;;;;;11.65;2.13;;;;;;;;;;5056638;28;20085;-67
2023/05/16 13:26:21;;;;;;;11.40;2.00;;;;;;;;;;5060974;28;20024;-66
2023/05/16 13:28:50;;;;;;;11.45;1.83;;;;;;;;;;5067231;28;20096;-68
2023/05/16 13:31:15;;;;;;;14.30;1.98;;;;;;;;;;5069403;28;20036;-68
2023/05/16 13:33:40;;;;;;;7.97;1.75;;;;;;;;;;5067152;28;20050;-66
2023/05/16 13:36:06;;;;;;;8.23;1.70;;;;;;;;;;5066788;28;20024;-67
2023/05/16 13:38:31;;;;;;;20.92;1.85;;;;;;;;;;5068580;28;20024;-67
2023/05/16 13:40:56;;;;;;;7.30;1.58;;;;;;;;;;5068875;28;20065;-67
2023/05/16 13:43:21;;;;;;;8.25;1.33;;;;;;;;;;5068310;28;20024;-67
2023/05/16 13:45:47;;;;;;;4.93;1.35;;;;;;;;;;5068171;28;20104;-67
2023/05/16 13:48:12;;;;;;;9.27;1.63;;;;;;;;;;5068828;28;20020;-66
2023/05/16 13:50:38;;;;;;;10.07;1.42;;;;;;;;;;5068922;28;20021;-68
2023/05/16 13:53:03;;;;;;;9.57;1.45;;;;;;;;;;5068722;28;20095;-66
2023/05/16 13:55:28;;;;;;;6.82;1.40;;;;;;;;;;5066259;28;20021;-64
2023/05/16 13:57:54;;;;;;;22.00;2.03;;;;;;;;;;5068847;28;20078;-68
2023/05/16 14:00:19;;;;;;;9.40;1.58;;;;;;;;;;5068806;28;20050;-64
2023/05/16 14:02:44;;;;;;;13.55;1.73;;;;;;;;;;5064073;28;20079;-68
2023/05/16 14:05:09;;;;;;;8.02;1.67;;;;;;;;;;5065852;28;20087;-67
2023/05/16 14:07:35;;;;;;;11.27;1.52;;;;;;;;;;5068545;28;20021;-66
2023/05/16 14:10:00;;;;;;;9.70;1.50;;;;;;;;;;5068378;28;20020;-65
2023/05/16 14:12:25;;;;;;;7.22;1.30;;;;;;;;;;5067066;28;20059;-67
2023/05/16 14:14:51;;;;;;;6.03;1.77;;;;;;;;;;5068407;28;20473;-65
2023/05/16 14:17:16;;;;;;;7.35;1.48;;;;;;;;;;5068959;28;20107;-64
2023/05/16 14:19:41;;;;;;;10.32;1.75;;;;;;;;;;5069529;28;20073;-68
2023/05/16 14:22:07;;;;;;;12.13;2.03;;;;;;;;;;5068073;28;20029;-66
2023/05/16 14:24:32;;;;;;;12.35;1.27;;;;;;;;;;5068695;28;20035;-66
2023/05/16 14:26:59;;;;;;;10.23;1.90;;;;;;;;;;5073104;28;20494;-67